createdAt,value
2019-05-07T00:00:29.934Z,0
2019-05-07T00:01:33.789Z,0
2019-05-07T00:02:32.085Z,0
2019-05-07T00:03:30.153Z,0
2019-05-07T00:04:30.159Z,0
2019-05-07T00:05:30.163Z,0
2019-05-07T00:06:32.382Z,0
2019-05-07T00:07:31.923Z,0
2019-05-07T00:08:32.160Z,0
2019-05-07T00:09:32.256Z,0
2019-05-07T00:10:33.082Z,0
2019-05-07T00:11:30.125Z,0
2019-05-07T00:12:31.785Z,0
2019-05-07T00:13:29.581Z,0
2019-05-07T00:14:31.954Z,0
2019-05-07T00:15:32.472Z,0
2019-05-07T00:16:32.331Z,0
2019-05-07T00:17:32.093Z,0
2019-05-07T00:18:32.151Z,0
2019-05-07T00:19:32.161Z,0
2019-05-07T00:20:29.854Z,0
2019-05-07T00:21:32.463Z,0
2019-05-07T00:22:29.789Z,0
2019-05-07T00:23:32.255Z,0
2019-05-07T00:24:29.766Z,0
2019-05-07T00:25:29.881Z,0
2019-05-07T00:26:31.863Z,0
2019-05-07T00:27:32.028Z,0
2019-05-07T00:28:32.408Z,0
2019-05-07T00:29:32.093Z,0
2019-05-07T00:30:30.203Z,0
2019-05-07T00:31:32.578Z,0
2019-05-07T00:32:30.168Z,0
2019-05-07T00:33:32.177Z,0
2019-05-07T00:34:29.880Z,0
2019-05-07T00:35:32.203Z,0
2019-05-07T00:36:32.334Z,0
2019-05-07T00:37:32.042Z,0
2019-05-07T00:38:31.914Z,0
2019-05-07T00:39:30.128Z,0
2019-05-07T00:40:31.908Z,0
2019-05-07T00:41:31.854Z,0
2019-05-07T00:42:29.568Z,0
2019-05-07T00:43:32.009Z,0
2019-05-07T00:44:29.840Z,0
2019-05-07T00:45:32.580Z,0
2019-05-07T00:46:29.319Z,0
2019-05-07T00:47:29.816Z,0
2019-05-07T00:48:32.562Z,0
2019-05-07T00:49:29.549Z,0
2019-05-07T00:50:29.821Z,0
2019-05-07T00:51:29.616Z,0
2019-05-07T00:52:29.557Z,0
2019-05-07T00:53:32.849Z,0
2019-05-07T00:54:32.315Z,0
2019-05-07T00:55:29.717Z,0
2019-05-07T00:56:29.257Z,0
2019-05-07T00:57:32.164Z,0
2019-05-07T00:58:34.488Z,0
2019-05-07T00:59:31.997Z,0
2019-05-07T01:00:29.518Z,0
2019-05-07T01:01:32.139Z,0
2019-05-07T01:02:28.948Z,0
2019-05-07T01:03:29.197Z,0
2019-05-07T01:04:29.940Z,0
2019-05-07T01:05:32.361Z,0
2019-05-07T01:06:35.151Z,0
2019-05-07T01:07:32.232Z,0
2019-05-07T01:08:32.006Z,0
2019-05-07T01:09:32.153Z,0
2019-05-07T01:10:29.621Z,0
2019-05-07T01:11:29.939Z,0
2019-05-07T01:12:28.865Z,0
2019-05-07T01:13:32.297Z,0
2019-05-07T01:14:31.962Z,0
2019-05-07T01:15:39.136Z,0
2019-05-07T01:16:29.602Z,0
2019-05-07T01:17:29.766Z,0
2019-05-07T01:18:32.194Z,0
2019-05-07T01:19:29.308Z,0
2019-05-07T01:20:28.816Z,0
2019-05-07T01:21:29.443Z,0
2019-05-07T01:22:29.588Z,0
2019-05-07T01:23:32.019Z,0
2019-05-07T01:24:32.178Z,0
2019-05-07T01:25:29.016Z,0
2019-05-07T01:26:29.506Z,0
2019-05-07T01:27:31.899Z,0
2019-05-07T01:28:29.723Z,0
2019-05-07T01:29:32.566Z,0
2019-05-07T01:30:32.193Z,0
2019-05-07T01:31:29.483Z,0
2019-05-07T01:32:29.451Z,0
2019-05-07T01:33:29.430Z,0
2019-05-07T01:34:32.056Z,0
2019-05-07T01:35:29.630Z,0
2019-05-07T01:36:31.429Z,0
2019-05-07T01:37:30.062Z,0
2019-05-07T01:38:29.685Z,0
2019-05-07T01:39:32.381Z,0
2019-05-07T01:40:29.730Z,0
2019-05-07T01:41:30.015Z,0
2019-05-07T01:42:29.450Z,0
2019-05-07T01:43:31.868Z,0
2019-05-07T01:44:29.154Z,0
2019-05-07T01:45:49.307Z,0
2019-05-07T01:46:32.418Z,0
2019-05-07T01:47:32.898Z,0
2019-05-07T01:48:32.273Z,0
2019-05-07T01:49:32.945Z,0
2019-05-07T01:50:29.276Z,0
2019-05-07T01:51:29.461Z,0
2019-05-07T01:52:29.393Z,0
2019-05-07T01:53:32.080Z,0
2019-05-07T01:54:33.195Z,0
2019-05-07T01:55:31.409Z,0
2019-05-07T01:56:29.878Z,0
2019-05-07T01:57:32.033Z,0
2019-05-07T01:58:29.388Z,0
2019-05-07T01:59:29.286Z,0
2019-05-07T02:00:29.662Z,0
2019-05-07T02:01:29.413Z,0
2019-05-07T02:02:31.912Z,0
2019-05-07T02:03:29.547Z,0
2019-05-07T02:04:29.624Z,0
2019-05-07T02:05:29.816Z,0
2019-05-07T02:06:28.790Z,0
2019-05-07T02:07:29.416Z,0
2019-05-07T02:08:29.376Z,0
2019-05-07T02:09:29.233Z,0
2019-05-07T02:10:29.182Z,0
2019-05-07T02:11:28.672Z,0
2019-05-07T02:12:29.447Z,0
2019-05-07T02:13:29.294Z,0
2019-05-07T02:14:28.624Z,0
2019-05-07T02:15:32.084Z,0
2019-05-07T02:16:28.656Z,0
2019-05-07T02:17:29.531Z,0
2019-05-07T02:18:29.072Z,0
2019-05-07T02:19:29.213Z,0
2019-05-07T02:20:29.259Z,0
2019-05-07T02:21:28.823Z,0
2019-05-07T02:22:31.837Z,0
2019-05-07T02:23:29.130Z,0
2019-05-07T02:24:28.890Z,0
2019-05-07T02:25:28.900Z,0
2019-05-07T02:26:29.328Z,0
2019-05-07T02:27:28.836Z,0
2019-05-07T02:28:28.984Z,0
2019-05-07T02:29:29.726Z,0
2019-05-07T02:30:34.476Z,0
2019-05-07T02:31:33.220Z,0
2019-05-07T02:32:33.343Z,0
2019-05-07T02:33:29.728Z,0
2019-05-07T02:34:33.872Z,0
2019-05-07T02:35:33.023Z,0
2019-05-07T02:36:33.677Z,0
2019-05-07T02:37:58.045Z,0
2019-05-07T02:38:29.770Z,0
2019-05-07T02:39:33.244Z,0
2019-05-07T02:40:29.971Z,0
2019-05-07T02:41:32.815Z,0
2019-05-07T02:42:33.499Z,0
2019-05-07T02:43:29.818Z,0
2019-05-07T02:44:32.441Z,0
2019-05-07T02:45:33.150Z,0
2019-05-07T02:46:43.314Z,0
2019-05-07T02:47:33.016Z,0
2019-05-07T02:48:33.058Z,0
2019-05-07T02:49:32.642Z,0
2019-05-07T02:50:32.711Z,0
2019-05-07T02:51:33.324Z,0
2019-05-07T02:52:32.323Z,0
2019-05-07T02:53:29.782Z,0
2019-05-07T02:54:32.773Z,0
2019-05-07T02:55:33.417Z,0
2019-05-07T02:56:33.217Z,0
2019-05-07T02:57:33.880Z,0
2019-05-07T02:58:33.030Z,0
2019-05-07T02:59:33.337Z,0
2019-05-07T03:00:33.319Z,0
2019-05-07T03:01:29.461Z,0
2019-05-07T03:02:33.174Z,0
2019-05-07T03:03:33.417Z,0
2019-05-07T03:04:35.643Z,0
2019-05-07T03:05:30.117Z,0
2019-05-07T03:06:33.578Z,0
2019-05-07T03:07:33.436Z,0
2019-05-07T03:08:35.574Z,0
2019-05-07T03:09:32.651Z,0
2019-05-07T03:10:33.573Z,0
2019-05-07T03:11:30.114Z,0
2019-05-07T03:12:33.420Z,0
2019-05-07T03:13:33.369Z,0
2019-05-07T03:14:32.372Z,0
2019-05-07T03:15:33.132Z,0
2019-05-07T03:16:56.164Z,4
2019-05-07T03:17:33.280Z,4
2019-05-07T03:18:33.384Z,4
2019-05-07T03:19:33.096Z,4
2019-05-07T03:20:33.251Z,0
2019-05-07T03:21:32.839Z,0
2019-05-07T03:22:33.479Z,4
2019-05-07T03:23:29.838Z,4
2019-05-07T03:24:29.778Z,4
2019-05-07T03:25:29.603Z,4
2019-05-07T03:26:30.371Z,4
2019-05-07T03:27:33.725Z,4
2019-05-07T03:28:30.157Z,4
2019-05-07T03:29:33.218Z,8
2019-05-07T03:30:38.101Z,8
2019-05-07T03:31:38.517Z,8
2019-05-07T03:32:46.696Z,12
2019-05-07T03:33:38.995Z,8
2019-05-07T03:34:38.888Z,12
2019-05-07T03:35:45.768Z,12
2019-05-07T03:36:37.845Z,12
2019-05-07T03:37:36.476Z,16
2019-05-07T03:38:33.298Z,20
2019-05-07T03:39:33.599Z,24
2019-05-07T03:40:32.774Z,28
2019-05-07T03:41:30.005Z,28
2019-05-07T03:42:33.467Z,32
2019-05-07T03:43:32.491Z,36
2019-05-07T03:44:33.783Z,40
2019-05-07T03:45:33.284Z,48
2019-05-07T03:46:33.527Z,56
2019-05-07T03:47:33.093Z,60
2019-05-07T03:48:33.207Z,64
2019-05-07T03:49:29.489Z,76
2019-05-07T03:50:30.297Z,84
2019-05-07T03:51:32.897Z,92
2019-05-07T03:52:33.477Z,100
2019-05-07T03:53:30.004Z,112
2019-05-07T03:54:33.713Z,124
2019-05-07T03:55:35.759Z,136
2019-05-07T03:56:32.887Z,148
2019-05-07T03:57:33.297Z,164
2019-05-07T03:58:33.628Z,180
2019-05-07T03:59:30.217Z,192
2019-05-07T04:00:33.189Z,212
2019-05-07T04:01:33.406Z,232
2019-05-07T04:02:33.139Z,252
2019-05-07T04:03:34.013Z,272
2019-05-07T04:04:32.990Z,292
2019-05-07T04:05:29.962Z,316
2019-05-07T04:06:33.048Z,344
2019-05-07T04:07:33.386Z,372
2019-05-07T04:08:33.354Z,400
2019-05-07T04:09:33.253Z,428
2019-05-07T04:10:33.423Z,460
2019-05-07T04:11:29.912Z,492
2019-05-07T04:12:33.993Z,520
2019-05-07T04:13:33.318Z,552
2019-05-07T04:14:34.093Z,588
2019-05-07T04:15:32.716Z,628
2019-05-07T04:16:33.118Z,664
2019-05-07T04:17:36.174Z,700
2019-05-07T04:18:32.881Z,732
2019-05-07T04:19:32.714Z,768
2019-05-07T04:20:33.279Z,804
2019-05-07T04:21:29.931Z,848
2019-05-07T04:22:36.640Z,904
2019-05-07T04:23:33.736Z,952
2019-05-07T04:24:33.134Z,1004
2019-05-07T04:25:34.298Z,1060
2019-05-07T04:26:33.573Z,1116
2019-05-07T04:27:33.123Z,1168
2019-05-07T04:28:33.315Z,1232
2019-05-07T04:29:29.880Z,1304
2019-05-07T04:30:32.839Z,1380
2019-05-07T04:31:33.785Z,1456
2019-05-07T04:32:30.090Z,1528
2019-05-07T04:33:33.267Z,1608
2019-05-07T04:34:33.556Z,1676
2019-05-07T04:35:29.271Z,1740
2019-05-07T04:36:33.739Z,1804
2019-05-07T04:37:33.112Z,1880
2019-05-07T04:38:33.305Z,1964
2019-05-07T04:39:33.300Z,2068
2019-05-07T04:40:33.621Z,2176
2019-05-07T04:41:32.876Z,2268
2019-05-07T04:42:33.275Z,2348
2019-05-07T04:43:33.319Z,2424
2019-05-07T04:44:33.009Z,2512
2019-05-07T04:45:30.096Z,2608
2019-05-07T04:46:33.007Z,2692
2019-05-07T04:47:53.764Z,2780
2019-05-07T04:48:30.112Z,2812
2019-05-07T04:49:32.966Z,2864
2019-05-07T04:50:54.102Z,2936
2019-05-07T04:51:29.860Z,2956
2019-05-07T04:52:33.379Z,2972
2019-05-07T04:53:32.752Z,2976
2019-05-07T04:54:32.752Z,2968
2019-05-07T04:55:29.734Z,2956
2019-05-07T04:56:33.139Z,2928
2019-05-07T04:57:32.971Z,2912
2019-05-07T04:58:33.725Z,2976
2019-05-07T04:59:32.958Z,3088
2019-05-07T05:00:29.933Z,3200
2019-05-07T05:01:32.840Z,3280
2019-05-07T05:02:32.350Z,3360
2019-05-07T05:03:30.509Z,3436
2019-05-07T05:04:39.566Z,3504
2019-05-07T05:05:32.901Z,3544
2019-05-07T05:06:29.072Z,3608
2019-05-07T05:07:29.729Z,3672
2019-05-07T05:08:32.481Z,3764
2019-05-07T05:09:32.870Z,3876
2019-05-07T05:10:33.421Z,4012
2019-05-07T05:11:33.177Z,4132
2019-05-07T05:12:32.367Z,4312
2019-05-07T05:13:32.162Z,4564
2019-05-07T05:14:29.730Z,4676
2019-05-07T05:15:29.127Z,4996
2019-05-07T05:16:28.812Z,5844
2019-05-07T05:17:29.547Z,5340
2019-05-07T05:18:28.873Z,5556
2019-05-07T05:19:27.895Z,5884
2019-05-07T05:20:29.140Z,7264
2019-05-07T05:21:29.642Z,7308
2019-05-07T05:22:31.546Z,7776
2019-05-07T05:23:32.069Z,7604
2019-05-07T05:24:29.152Z,5244
2019-05-07T05:25:29.613Z,5264
2019-05-07T05:26:28.836Z,5304
2019-05-07T05:27:32.981Z,5352
2019-05-07T05:28:28.561Z,5388
2019-05-07T05:29:32.067Z,5452
2019-05-07T05:30:28.902Z,5456
2019-05-07T05:31:29.494Z,5432
2019-05-07T05:32:29.565Z,5504
2019-05-07T05:33:27.827Z,5652
2019-05-07T05:34:28.998Z,5880
2019-05-07T05:35:29.403Z,5820
2019-05-07T05:36:28.656Z,6284
2019-05-07T05:37:31.945Z,6448
2019-05-07T05:38:29.105Z,6516
2019-05-07T05:39:29.325Z,6572
2019-05-07T05:40:31.765Z,6728
2019-05-07T05:41:29.254Z,6816
2019-05-07T05:42:28.873Z,6808
2019-05-07T05:43:31.672Z,6612
2019-05-07T05:44:31.753Z,6400
2019-05-07T05:45:29.117Z,6292
2019-05-07T05:46:31.438Z,6196
2019-05-07T05:47:28.897Z,6196
2019-05-07T05:48:29.456Z,6140
2019-05-07T05:49:27.622Z,6128
2019-05-07T05:50:28.775Z,6164
2019-05-07T05:51:29.626Z,6196
2019-05-07T05:52:28.991Z,6268
2019-05-07T05:53:28.554Z,6356
2019-05-07T05:54:31.645Z,6628
2019-05-07T05:55:29.524Z,7268
2019-05-07T05:56:32.178Z,11912
2019-05-07T05:57:27.589Z,13044
2019-05-07T05:58:29.014Z,8452
2019-05-07T05:59:57.065Z,9044
2019-05-07T06:00:29.333Z,9284
2019-05-07T06:01:31.816Z,9776
2019-05-07T06:02:32.134Z,10000
2019-05-07T06:03:32.087Z,10220
2019-05-07T06:04:29.389Z,13072
2019-05-07T06:05:29.309Z,10520
2019-05-07T06:06:29.133Z,11740
2019-05-07T06:07:29.268Z,12064
2019-05-07T06:08:28.580Z,13272
2019-05-07T06:09:28.913Z,13608
2019-05-07T06:10:29.257Z,12572
2019-05-07T06:11:28.793Z,13340
2019-05-07T06:12:29.071Z,13152
2019-05-07T06:13:27.899Z,11740
2019-05-07T06:14:29.089Z,14512
2019-05-07T06:15:29.414Z,13896
2019-05-07T06:16:28.835Z,15168
2019-05-07T06:17:29.259Z,13752
2019-05-07T06:18:32.497Z,16960
2019-05-07T06:19:29.186Z,14284
2019-05-07T06:20:29.224Z,13260
2019-05-07T06:21:28.782Z,11512
2019-05-07T06:22:28.911Z,11992
2019-05-07T06:23:29.582Z,9944
2019-05-07T06:24:31.663Z,10288
2019-05-07T06:25:35.138Z,9540
2019-05-07T06:26:31.873Z,9380
2019-05-07T06:27:27.744Z,8928
2019-05-07T06:28:29.013Z,9264
2019-05-07T06:29:30.087Z,9740
2019-05-07T06:30:29.537Z,9476
2019-05-07T06:31:29.155Z,9644
2019-05-07T06:32:27.325Z,9544
2019-05-07T06:33:27.935Z,8904
2019-05-07T06:34:28.909Z,8684
2019-05-07T06:35:27.840Z,8820
2019-05-07T06:36:29.310Z,9332
2019-05-07T06:37:29.111Z,9540
2019-05-07T06:38:29.235Z,9896
2019-05-07T06:39:29.354Z,10284
2019-05-07T06:40:34.922Z,10256
2019-05-07T06:41:27.509Z,10104
2019-05-07T06:42:29.076Z,9292
2019-05-07T06:43:29.071Z,9052
2019-05-07T06:44:31.792Z,8556
2019-05-07T06:45:27.378Z,8464
2019-05-07T06:46:27.764Z,8768
2019-05-07T06:47:29.091Z,8580
2019-05-07T06:48:48.851Z,8444
2019-05-07T06:49:29.398Z,8432
2019-05-07T06:50:28.789Z,8716
2019-05-07T06:51:29.060Z,8992
2019-05-07T06:52:29.295Z,9608
2019-05-07T06:53:29.357Z,9712
2019-05-07T06:54:31.870Z,9932
2019-05-07T06:55:27.197Z,10180
2019-05-07T06:56:27.637Z,9764
2019-05-07T06:57:29.361Z,9672
2019-05-07T06:58:28.604Z,9852
2019-05-07T06:59:32.450Z,9640
2019-05-07T07:00:31.379Z,9600
2019-05-07T07:01:27.428Z,9660
2019-05-07T07:02:29.770Z,9808
2019-05-07T07:03:29.134Z,9980
2019-05-07T07:04:29.534Z,10092
2019-05-07T07:05:35.382Z,10240
2019-05-07T07:06:27.802Z,10164
2019-05-07T07:07:44.443Z,10232
2019-05-07T07:08:27.900Z,10252
2019-05-07T07:09:29.093Z,10448
2019-05-07T07:10:27.452Z,9976
2019-05-07T07:11:31.671Z,9592
2019-05-07T07:12:32.830Z,9652
2019-05-07T07:13:27.736Z,9624
2019-05-07T07:14:27.626Z,9676
2019-05-07T07:15:28.028Z,9640
2019-05-07T07:16:27.422Z,9804
2019-05-07T07:17:28.946Z,9924
2019-05-07T07:18:27.906Z,10052
2019-05-07T07:19:28.145Z,10116
2019-05-07T07:20:28.841Z,10076
2019-05-07T07:21:29.187Z,10068
2019-05-07T07:22:28.896Z,9964
2019-05-07T07:23:29.513Z,10092
2019-05-07T07:24:29.011Z,10628
2019-05-07T07:25:27.530Z,10880
2019-05-07T07:26:29.062Z,10760
2019-05-07T07:27:31.937Z,10488
2019-05-07T07:28:28.911Z,10508
2019-05-07T07:29:28.951Z,10644
2019-05-07T07:30:29.011Z,10452
2019-05-07T07:31:31.839Z,10280
2019-05-07T07:32:31.643Z,10224
2019-05-07T07:33:29.352Z,10396
2019-05-07T07:34:29.567Z,10684
2019-05-07T07:35:27.143Z,10880
2019-05-07T07:36:29.120Z,11076
2019-05-07T07:37:27.482Z,11008
2019-05-07T07:38:29.280Z,11872
2019-05-07T07:39:28.926Z,11876
2019-05-07T07:40:29.224Z,11228
2019-05-07T07:41:29.381Z,11292
2019-05-07T07:42:27.225Z,11496
2019-05-07T07:43:28.769Z,11928
2019-05-07T07:44:29.429Z,12252
2019-05-07T07:45:27.649Z,11956
2019-05-07T07:46:29.080Z,12308
2019-05-07T07:47:29.216Z,12348
2019-05-07T07:48:34.566Z,12388
2019-05-07T07:49:28.881Z,12532
2019-05-07T07:50:29.298Z,13112
2019-05-07T07:51:49.335Z,12572
2019-05-07T07:52:27.267Z,12300
2019-05-07T07:53:32.189Z,11996
2019-05-07T07:54:31.824Z,11680
2019-05-07T07:55:29.374Z,11892
2019-05-07T07:56:27.654Z,12388
2019-05-07T07:57:28.235Z,13448
2019-05-07T07:58:31.538Z,13724
2019-05-07T07:59:29.028Z,13784
2019-05-07T08:00:30.038Z,12192
2019-05-07T08:01:27.149Z,11556
2019-05-07T08:02:27.587Z,12176
2019-05-07T08:03:29.462Z,12768
2019-05-07T08:04:27.528Z,13356
2019-05-07T08:05:29.138Z,13832
2019-05-07T08:06:27.141Z,13960
2019-05-07T08:07:27.265Z,13420
2019-05-07T08:08:29.123Z,13368
2019-05-07T08:09:32.401Z,13176
2019-05-07T08:10:28.735Z,13264
2019-05-07T08:11:28.668Z,13028
2019-05-07T08:12:28.482Z,12988
2019-05-07T08:13:27.500Z,12248
2019-05-07T08:14:29.122Z,11236
2019-05-07T08:15:32.992Z,10948
2019-05-07T08:16:28.657Z,11104
2019-05-07T08:17:28.949Z,10548
2019-05-07T08:18:29.267Z,11052
2019-05-07T08:19:32.715Z,10396
2019-05-07T08:20:29.127Z,10512
2019-05-07T08:21:29.236Z,11328
2019-05-07T08:22:29.165Z,12032
2019-05-07T08:23:27.480Z,12048
2019-05-07T08:24:27.385Z,11916
2019-05-07T08:25:28.742Z,12032
2019-05-07T08:26:29.137Z,12164
2019-05-07T08:27:28.772Z,12548
2019-05-07T08:28:31.901Z,12632
2019-05-07T08:29:29.323Z,12660
2019-05-07T08:30:29.319Z,12524
2019-05-07T08:31:27.434Z,12156
2019-05-07T08:32:28.887Z,12108
2019-05-07T08:33:29.290Z,11380
2019-05-07T08:34:29.038Z,11780
2019-05-07T08:35:29.166Z,11792
2019-05-07T08:36:29.515Z,11724
2019-05-07T08:37:29.283Z,11576
2019-05-07T08:38:32.721Z,11568
2019-05-07T08:39:32.519Z,11592
2019-05-07T08:40:28.946Z,11740
2019-05-07T08:41:31.673Z,11604
2019-05-07T08:42:27.475Z,11524
2019-05-07T08:43:28.820Z,11556
2019-05-07T08:44:28.943Z,11612
2019-05-07T08:45:32.590Z,10888
2019-05-07T08:46:29.568Z,11012
2019-05-07T08:47:27.404Z,11256
2019-05-07T08:48:28.607Z,11604
2019-05-07T08:49:45.905Z,11696
2019-05-07T08:50:29.108Z,9936
2019-05-07T08:51:29.209Z,10064
2019-05-07T08:52:32.549Z,8160
2019-05-07T08:53:29.322Z,7896
2019-05-07T08:54:26.980Z,7836
2019-05-07T08:55:28.467Z,8136
2019-05-07T08:56:29.339Z,8656
2019-05-07T08:57:31.365Z,8188
2019-05-07T08:58:31.715Z,8180
2019-05-07T08:59:28.976Z,8220
2019-05-07T09:00:29.233Z,8288
2019-05-07T09:01:28.495Z,8228
2019-05-07T09:02:29.246Z,8236
2019-05-07T09:03:32.380Z,8232
2019-05-07T09:04:29.153Z,8280
2019-05-07T09:05:29.219Z,8372
2019-05-07T09:06:29.179Z,8488
2019-05-07T09:07:28.398Z,8576
2019-05-07T09:08:28.702Z,8688
2019-05-07T09:09:29.157Z,8792
2019-05-07T09:10:29.041Z,8864
2019-05-07T09:11:27.837Z,8868
2019-05-07T09:12:27.346Z,8668
2019-05-07T09:13:27.161Z,8320
2019-05-07T09:14:31.963Z,8236
2019-05-07T09:15:27.011Z,8412
2019-05-07T09:16:28.117Z,8780
2019-05-07T09:17:27.584Z,8972
2019-05-07T09:18:27.765Z,8888
2019-05-07T09:19:28.885Z,8648
2019-05-07T09:20:27.717Z,8512
2019-05-07T09:21:27.298Z,8392
2019-05-07T09:22:27.445Z,8372
2019-05-07T09:23:29.181Z,8496
2019-05-07T09:24:29.095Z,8588
2019-05-07T09:25:29.437Z,8648
2019-05-07T09:26:28.973Z,8648
2019-05-07T09:27:29.407Z,8692
2019-05-07T09:28:29.106Z,8764
2019-05-07T09:29:29.038Z,8852
2019-05-07T09:30:32.627Z,8952
2019-05-07T09:31:27.498Z,8924
2019-05-07T09:32:29.094Z,8924
2019-05-07T09:33:27.225Z,8932
2019-05-07T09:34:29.334Z,8936
2019-05-07T09:35:28.603Z,8788
2019-05-07T09:36:27.365Z,8412
2019-05-07T09:37:26.981Z,8032
2019-05-07T09:38:29.180Z,7852
2019-05-07T09:39:28.984Z,7972
2019-05-07T09:40:28.423Z,8320
2019-05-07T09:41:29.240Z,8836
2019-05-07T09:42:29.482Z,9188
2019-05-07T09:43:28.892Z,9256
2019-05-07T09:44:29.244Z,9408
2019-05-07T09:45:29.311Z,9732
2019-05-07T09:46:29.560Z,10184
2019-05-07T09:47:28.614Z,10768
2019-05-07T09:48:29.258Z,11512
2019-05-07T09:49:28.887Z,12132
2019-05-07T09:50:28.963Z,12736
2019-05-07T09:51:27.447Z,13152
2019-05-07T09:52:27.465Z,13180
2019-05-07T09:53:27.164Z,12908
2019-05-07T09:54:27.698Z,12588
2019-05-07T09:55:27.918Z,13412
2019-05-07T09:56:27.511Z,12988
2019-05-07T09:57:42.137Z,14068
2019-05-07T09:58:44.839Z,14696
2019-05-07T09:59:28.520Z,14752
2019-05-07T10:00:26.979Z,14220
2019-05-07T10:01:28.259Z,14228
2019-05-07T10:02:27.362Z,14448
2019-05-07T10:03:27.357Z,14556
2019-05-07T10:04:29.090Z,14088
2019-05-07T10:05:26.459Z,13592
2019-05-07T10:06:27.287Z,14244
2019-05-07T10:07:29.301Z,13452
2019-05-07T10:08:26.966Z,12764
2019-05-07T10:09:29.411Z,12048
2019-05-07T10:10:29.186Z,11540
2019-05-07T10:11:29.358Z,11332
2019-05-07T10:12:26.720Z,11036
2019-05-07T10:13:27.360Z,10812
2019-05-07T10:14:29.500Z,10524
2019-05-07T10:15:27.112Z,10324
2019-05-07T10:16:26.459Z,10472
2019-05-07T10:17:28.987Z,9992
2019-05-07T10:18:27.668Z,9784
2019-05-07T10:19:29.121Z,9508
2019-05-07T10:20:29.875Z,9364
2019-05-07T10:21:29.275Z,9400
2019-05-07T10:22:27.353Z,9776
2019-05-07T10:23:29.906Z,9680
2019-05-07T10:24:28.907Z,10504
2019-05-07T10:25:29.099Z,9548
2019-05-07T10:26:27.187Z,9520
2019-05-07T10:27:28.746Z,9432
2019-05-07T10:28:27.570Z,9568
2019-05-07T10:29:27.280Z,9960
2019-05-07T10:30:28.799Z,9524
2019-05-07T10:31:31.864Z,9536
2019-05-07T10:32:27.191Z,9496
2019-05-07T10:33:27.733Z,9520
2019-05-07T10:34:27.424Z,9524
2019-05-07T10:35:30.614Z,9616
2019-05-07T10:36:27.639Z,9740
2019-05-07T10:37:26.750Z,9796
2019-05-07T10:38:28.541Z,9760
2019-05-07T10:39:28.646Z,9792
2019-05-07T10:40:29.249Z,9860
2019-05-07T10:41:28.988Z,9956
2019-05-07T10:42:27.013Z,9996
2019-05-07T10:43:29.335Z,9996
2019-05-07T10:44:27.736Z,10092
2019-05-07T10:45:28.583Z,10344
2019-05-07T10:46:26.968Z,10412
2019-05-07T10:47:29.108Z,10400
2019-05-07T10:48:29.163Z,10408
2019-05-07T10:49:27.425Z,10420
2019-05-07T10:50:44.950Z,10532
2019-05-07T10:51:28.746Z,10720
2019-05-07T10:52:27.622Z,10908
2019-05-07T10:53:27.779Z,10884
2019-05-07T10:54:28.762Z,10672
2019-05-07T10:55:29.114Z,10360
2019-05-07T10:56:29.181Z,10144
2019-05-07T10:57:29.409Z,11164
2019-05-07T10:58:27.228Z,11092
2019-05-07T10:59:29.352Z,11640
2019-05-07T11:00:27.499Z,12548
2019-05-07T11:01:29.551Z,13752
2019-05-07T11:02:28.882Z,13928
2019-05-07T11:03:28.606Z,14744
2019-05-07T11:04:45.721Z,13276
2019-05-07T11:05:28.775Z,12712
2019-05-07T11:06:29.199Z,12984
2019-05-07T11:07:29.301Z,12516
2019-05-07T11:08:32.650Z,12252
2019-05-07T11:09:29.235Z,12268
2019-05-07T11:10:28.864Z,12184
2019-05-07T11:11:27.202Z,11904
2019-05-07T11:12:27.769Z,11588
2019-05-07T11:13:29.076Z,11064
2019-05-07T11:14:28.928Z,10668
2019-05-07T11:15:28.774Z,10476
2019-05-07T11:16:28.736Z,10504
2019-05-07T11:17:29.256Z,10508
2019-05-07T11:18:28.762Z,12792
2019-05-07T11:19:28.964Z,10920
2019-05-07T11:20:27.441Z,10888
2019-05-07T11:21:28.799Z,10628
2019-05-07T11:22:28.982Z,10624
2019-05-07T11:23:28.821Z,10760
2019-05-07T11:24:26.978Z,11040
2019-05-07T11:25:29.356Z,10916
2019-05-07T11:26:29.088Z,10688
2019-05-07T11:27:29.673Z,10748
2019-05-07T11:28:27.539Z,10692
2019-05-07T11:29:28.685Z,10728
2019-05-07T11:30:27.701Z,10712
2019-05-07T11:31:29.513Z,12172
2019-05-07T11:32:28.567Z,11688
2019-05-07T11:33:29.204Z,11548
2019-05-07T11:34:28.680Z,11484
2019-05-07T11:35:31.690Z,10768
2019-05-07T11:36:26.683Z,11756
2019-05-07T11:37:29.546Z,11708
2019-05-07T11:38:33.073Z,11920
2019-05-07T11:39:27.474Z,12332
2019-05-07T11:40:27.760Z,11284
2019-05-07T11:41:27.481Z,11412
2019-05-07T11:42:28.657Z,12412
2019-05-07T11:43:28.872Z,12092
2019-05-07T11:44:27.849Z,10824
2019-05-07T11:45:27.098Z,10060
2019-05-07T11:46:29.061Z,11772
2019-05-07T11:47:27.363Z,11016
2019-05-07T11:48:28.995Z,11312
2019-05-07T11:49:29.575Z,11264
2019-05-07T11:50:29.699Z,10412
2019-05-07T11:51:27.934Z,10984
2019-05-07T11:52:27.743Z,10944
2019-05-07T11:53:28.941Z,10964
2019-05-07T11:54:26.924Z,10928
2019-05-07T11:55:29.011Z,10796
2019-05-07T11:56:28.888Z,10732
2019-05-07T11:57:29.043Z,10612
2019-05-07T11:58:28.627Z,10472
2019-05-07T11:59:28.896Z,10296
2019-05-07T12:00:29.367Z,10232
2019-05-07T12:01:47.084Z,10196
2019-05-07T12:02:27.238Z,9964
2019-05-07T12:03:28.741Z,10272
2019-05-07T12:04:31.968Z,10260
2019-05-07T12:05:27.331Z,10276
2019-05-07T12:06:28.625Z,10344
2019-05-07T12:07:29.462Z,10332
2019-05-07T12:08:53.657Z,9972
2019-05-07T12:09:28.743Z,10124
2019-05-07T12:10:28.886Z,9952
2019-05-07T12:11:29.094Z,10568
2019-05-07T12:12:28.857Z,10588
2019-05-07T12:13:28.772Z,11072
2019-05-07T12:14:39.775Z,11056
2019-05-07T12:15:28.677Z,11488
2019-05-07T12:16:31.825Z,11364
2019-05-07T12:17:29.222Z,11076
2019-05-07T12:18:27.321Z,10956
2019-05-07T12:19:27.486Z,10872
2019-05-07T12:20:28.800Z,10364
2019-05-07T12:21:30.216Z,10364
2019-05-07T12:22:26.917Z,10724
2019-05-07T12:23:27.217Z,10600
2019-05-07T12:24:29.455Z,10716
2019-05-07T12:25:27.167Z,10932
2019-05-07T12:26:28.910Z,11064
2019-05-07T12:27:27.621Z,11056
2019-05-07T12:28:29.073Z,10620
2019-05-07T12:29:28.698Z,10540
2019-05-07T12:30:29.449Z,10908
2019-05-07T12:31:29.544Z,10908
2019-05-07T12:32:28.765Z,9612
2019-05-07T12:33:26.911Z,9492
2019-05-07T12:34:27.731Z,9524
2019-05-07T12:35:29.106Z,9500
2019-05-07T12:36:27.601Z,9892
2019-05-07T12:37:27.346Z,9960
2019-05-07T12:38:28.872Z,11540
2019-05-07T12:39:29.097Z,11656
2019-05-07T12:40:26.987Z,11564
2019-05-07T12:41:29.245Z,11144
2019-05-07T12:42:29.212Z,9480
2019-05-07T12:43:26.436Z,10712
2019-05-07T12:44:29.081Z,9244
2019-05-07T12:45:27.437Z,9556
2019-05-07T12:46:29.457Z,9424
2019-05-07T12:47:28.842Z,9372
2019-05-07T12:48:28.694Z,9340
2019-05-07T12:49:29.007Z,9368
2019-05-07T12:50:29.074Z,10504
2019-05-07T12:51:45.009Z,9552
2019-05-07T12:52:27.562Z,9796
2019-05-07T12:53:26.983Z,10120
2019-05-07T12:54:27.518Z,10240
2019-05-07T12:55:27.398Z,10108
2019-05-07T12:56:26.971Z,11052
2019-05-07T12:57:28.829Z,11596
2019-05-07T12:58:28.758Z,11556
2019-05-07T12:59:28.804Z,11228
2019-05-07T13:00:27.469Z,11124
2019-05-07T13:01:29.170Z,10772
2019-05-07T13:02:48.323Z,9636
2019-05-07T13:03:28.787Z,8576
2019-05-07T13:04:29.252Z,8532
2019-05-07T13:05:26.910Z,8244
2019-05-07T13:06:29.169Z,8032
2019-05-07T13:07:28.857Z,7836
2019-05-07T13:08:27.598Z,7512
2019-05-07T13:09:28.911Z,7496
2019-05-07T13:10:29.087Z,7744
2019-05-07T13:11:29.077Z,7384
2019-05-07T13:12:28.901Z,7324
2019-05-07T13:13:27.225Z,7196
2019-05-07T13:14:28.991Z,6984
2019-05-07T13:15:34.841Z,6880
2019-05-07T13:16:29.164Z,6892
2019-05-07T13:17:29.571Z,6924
2019-05-07T13:18:27.455Z,7048
2019-05-07T13:19:27.498Z,7156
2019-05-07T13:20:27.255Z,7292
2019-05-07T13:21:27.416Z,7388
2019-05-07T13:22:28.658Z,7460
2019-05-07T13:23:31.595Z,7460
2019-05-07T13:24:32.069Z,7340
2019-05-07T13:25:34.850Z,7280
2019-05-07T13:26:29.025Z,7236
2019-05-07T13:27:27.142Z,7208
2019-05-07T13:28:26.906Z,7516
2019-05-07T13:29:29.026Z,8156
2019-05-07T13:30:29.299Z,8652
2019-05-07T13:31:30.094Z,8132
2019-05-07T13:32:27.226Z,7060